Time;durP1;ratioP1;P1;durP2;ratioP2;P2;SDS_P1;SDS_P2;PMS_P1;PMS_P2;Temp;Humidity;BMP_temperature;BMP_pressure;BME280_temperature;BME280_humidity;BME280_pressure;Samples;Min_cycle;Max_cycle;Signal;HPM_P1;HPM_P2
2023/12/11 00:01:08;;;;;;;15.07;7.32;;;6.70;96.90;;;;;;5054081;28;20036;-61
2023/12/11 00:03:35;;;;;;;19.30;8.57;;;6.70;96.90;;;;;;5078756;28;20472;-61
2023/12/11 00:06:02;;;;;;;11.93;7.50;;;6.80;97.00;;;;;;5075188;28;20468;-60
2023/12/11 00:08:29;;;;;;;14.32;7.40;;;6.80;97.00;;;;;;5091370;28;20056;-60
2023/12/11 00:10:54;;;;;;;14.88;7.85;;;6.80;97.00;;;;;;5072454;28;20024;-60
2023/12/11 00:13:20;;;;;;;15.30;7.47;;;6.90;97.00;;;;;;5072908;28;20507;-59
2023/12/11 00:15:47;;;;;;;16.58;8.75;;;6.80;97.00;;;;;;5073169;28;20107;-59
2023/12/11 00:18:16;;;;;;;14.20;7.93;;;6.80;97.00;;;;;;5073329;28;20032;-57
2023/12/11 00:20:43;;;;;;;11.70;8.63;;;6.90;97.10;;;;;;5054952;28;20028;-57
2023/12/11 00:23:09;;;;;;;15.23;8.13;;;6.80;97.10;;;;;;5058775;28;20035;-58
2023/12/11 00:25:35;;;;;;;15.95;8.75;;;6.90;97.10;;;;;;5092600;28;20039;-58
2023/12/11 00:28:03;;;;;;;15.50;8.23;;;6.90;97.10;;;;;;5088704;28;20338;-57
2023/12/11 00:30:29;;;;;;;14.02;8.98;;;6.90;97.10;;;;;;5072733;28;20033;-58
2023/12/11 00:32:55;;;;;;;17.20;8.25;;;6.90;97.10;;;;;;5072977;28;20036;-57
2023/12/11 00:35:22;;;;;;;13.93;9.00;;;7.00;97.20;;;;;;5072655;28;20035;-57
2023/12/11 00:37:47;;;;;;;23.10;11.60;;;7.00;97.20;;;;;;5055345;28;20055;-58
2023/12/11 00:40:14;;;;;;;15.38;9.60;;;7.10;97.20;;;;;;5054724;28;20450;-56
2023/12/11 00:42:41;;;;;;;18.90;11.02;;;7.20;97.30;;;;;;5072723;28;20029;-56
2023/12/11 00:45:13;;;;;;;18.77;10.82;;;7.20;97.30;;;;;;5076160;28;20025;-55
2023/12/11 00:47:46;;;;;;;22.30;11.52;;;7.30;97.40;;;;;;5076441;28;20044;-56
2023/12/11 00:50:13;;;;;;;18.48;10.63;;;7.40;97.40;;;;;;5076065;28;20017;-56
2023/12/11 00:52:39;;;;;;;23.05;11.75;;;7.50;97.50;;;;;;5076216;28;20025;-52
2023/12/11 00:55:08;;;;;;;22.95;10.98;;;7.50;97.50;;;;;;5076390;28;20024;-54
2023/12/11 00:57:34;;;;;;;31.33;14.75;;;7.60;97.40;;;;;;5076556;28;20036;-54
2023/12/11 01:00:03;;;;;;;23.67;11.32;;;7.60;97.50;;;;;;5058607;28;20035;-55
2023/12/11 01:02:28;;;;;;;21.40;11.20;;;7.60;97.50;;;;;;5076261;28;20075;-53
2023/12/11 01:04:57;;;;;;;21.08;9.85;;;7.60;97.40;;;;;;5075732;28;20048;-55
2023/12/11 01:07:25;;;;;;;20.05;9.02;;;7.50;97.40;;;;;;5076094;28;20040;-51
2023/12/11 01:09:53;;;;;;;23.27;9.73;;;7.50;97.40;;;;;;5075934;28;20112;-53
2023/12/11 01:12:21;;;;;;;22.33;7.88;;;7.50;97.50;;;;;;5075984;28;20024;-55
2023/12/11 01:14:53;;;;;;;18.42;7.20;;;7.50;97.50;;;;;;5076370;28;20338;-56
2023/12/11 01:17:21;;;;;;;23.52;7.03;;;7.50;97.50;;;;;;5085483;28;20396;-53
2023/12/11 01:19:53;;;;;;;23.48;6.60;;;7.60;97.60;;;;;;5092842;28;20039;-54
2023/12/11 01:22:20;;;;;;;21.58;6.45;;;7.70;97.60;;;;;;5058429;28;20032;-55
2023/12/11 01:24:45;;;;;;;19.50;6.45;;;7.70;97.60;;;;;;5060605;28;20044;-51
2023/12/11 01:27:15;;;;;;;19.58;5.97;;;7.70;97.60;;;;;;5075580;28;20017;-54
2023/12/11 01:29:47;;;;;;;19.48;5.55;;;7.70;97.50;;;;;;5075832;28;20032;-55
2023/12/11 01:32:14;;;;;;;14.77;5.47;;;7.70;97.50;;;;;;5075758;28;20032;-52
2023/12/11 01:34:41;;;;;;;16.98;6.75;;;7.70;97.60;;;;;;5070950;28;20458;-52
2023/12/11 01:37:07;;;;;;;30.23;6.45;;;7.70;97.60;;;;;;5075374;28;20037;-50
2023/12/11 01:39:34;;;;;;;27.70;6.75;;;7.80;97.70;;;;;;5075440;28;20041;-53
2023/12/11 01:42:02;;;;;;;21.77;7.30;;;7.80;97.70;;;;;;5075330;28;20040;-51
2023/12/11 01:44:32;;;;;;;22.92;6.43;;;7.80;97.60;;;;;;5075092;28;20086;-54
2023/12/11 01:47:00;;;;;;;24.38;6.22;;;7.90;97.60;;;;;;5076049;28;20890;-58
2023/12/11 01:49:29;;;;;;;19.85;7.15;;;7.90;97.60;;;;;;5075289;28;20502;-55
2023/12/11 01:51:56;;;;;;;28.67;6.90;;;7.90;97.70;;;;;;5075414;28;20050;-57
2023/12/11 01:54:24;;;;;;;17.65;5.80;;;7.90;97.70;;;;;;5075171;28;20025;-57
2023/12/11 01:56:51;;;;;;;24.83;5.75;;;7.90;97.70;;;;;;5056577;28;20373;-56
2023/12/11 01:59:18;;;;;;;36.25;6.35;;;8.00;97.70;;;;;;5075080;28;20032;-54
2023/12/11 02:01:44;;;;;;;26.70;6.93;;;8.00;97.70;;;;;;5075641;28;20104;-53
2023/12/11 02:04:21;;;;;;;31.98;6.93;;;8.10;97.80;;;;;;5074843;28;20083;-55
2023/12/11 02:06:48;;;;;;;24.92;6.78;;;8.10;97.70;;;;;;5075140;28;20086;-54
2023/12/11 02:09:15;;;;;;;25.75;7.20;;;8.20;97.70;;;;;;5075109;28;20052;-54
2023/12/11 02:11:45;;;;;;;40.22;8.70;;;8.20;97.80;;;;;;5057289;28;20457;-55
2023/12/11 02:14:12;;;;;;;33.45;8.65;;;8.20;97.70;;;;;;5057546;28;20434;-54
2023/12/11 02:16:39;;;;;;;50.28;9.90;;;8.20;97.70;;;;;;5074891;28;20040;-55
2023/12/11 02:19:07;;;;;;;34.38;8.18;;;8.20;97.70;;;;;;5074768;28;20059;-54
2023/12/11 02:21:35;;;;;;;34.67;8.50;;;8.20;97.70;;;;;;5074788;28;20028;-54
2023/12/11 02:24:25;;;;;;;45.67;9.13;;;8.20;97.60;;;;;;5040328;28;20044;-54
2023/12/11 02:26:54;;;;;;;37.13;7.93;;;8.10;97.60;;;;;;5074118;28;20381;-52
2023/12/11 02:29:21;;;;;;;40.67;7.60;;;8.00;97.50;;;;;;5074658;28;20130;-54
2023/12/11 02:31:47;;;;;;;46.13;8.50;;;7.90;97.50;;;;;;5074604;28;20037;-53
2023/12/11 02:34:15;;;;;;;48.55;8.32;;;7.90;97.60;;;;;;5074907;28;20025;-52
2023/12/11 02:36:43;;;;;;;40.35;6.78;;;7.90;97.50;;;;;;5074269;28;20063;-55
2023/12/11 02:39:09;;;;;;;49.33;9.32;;;7.90;97.60;;;;;;5074361;28;20036;-55
2023/12/11 02:41:37;;;;;;;40.00;7.32;;;7.90;97.60;;;;;;5074443;28;20032;-54
2023/12/11 02:44:02;;;;;;;41.58;8.07;;;8.00;97.60;;;;;;5074230;28;20032;-51
2023/12/11 02:46:31;;;;;;;37.22;7.50;;;8.10;97.60;;;;;;5074134;28;20077;-51
2023/12/11 02:48:57;;;;;;;41.42;8.43;;;8.00;97.50;;;;;;5077657;28;20100;-56
2023/12/11 02:51:23;;;;;;;38.45;8.48;;;8.00;97.50;;;;;;5056584;28;20104;-53
2023/12/11 02:53:51;;;;;;;46.95;8.68;;;8.10;97.50;;;;;;5074004;28;20446;-49
2023/12/11 02:56:19;;;;;;;41.28;8.73;;;8.10;97.50;;;;;;5073935;28;20029;-51
2023/12/11 02:58:46;;;;;;;43.28;7.25;;;8.10;97.50;;;;;;5074272;28;20523;-55
2023/12/11 03:01:15;;;;;;;35.40;7.05;;;8.10;97.50;;;;;;5039727;28;20037;-49
2023/12/11 03:03:46;;;;;;;42.33;7.93;;;8.10;97.50;;;;;;5073614;28;20082;-49
2023/12/11 03:06:21;;;;;;;43.53;7.22;;;8.10;97.40;;;;;;5074297;28;20028;-54
2023/12/11 03:08:48;;;;;;;29.40;7.03;;;8.10;97.40;;;;;;5073643;28;20509;-54
2023/12/11 03:11:15;;;;;;;34.85;6.97;;;8.10;97.40;;;;;;5073929;28;20048;-48
2023/12/11 03:13:42;;;;;;;34.53;7.40;;;8.10;97.40;;;;;;5074001;28;20077;-54
2023/12/11 03:16:12;;;;;;;34.17;8.25;;;8.10;97.30;;;;;;5072582;28;20339;-48
2023/12/11 03:18:40;;;;;;;36.30;7.68;;;8.10;97.30;;;;;;5073111;28;20457;-54
2023/12/11 03:21:07;;;;;;;42.10;6.82;;;8.00;97.30;;;;;;5073655;28;20031;-49
2023/12/11 03:23:33;;;;;;;45.58;8.00;;;8.00;97.30;;;;;;5080531;28;20123;-53
2023/12/11 03:26:00;;;;;;;33.38;6.10;;;8.10;97.30;;;;;;5093635;28;20153;-52
2023/12/11 03:28:28;;;;;;;34.38;6.20;;;8.00;97.20;;;;;;5083486;28;20029;-49
2023/12/11 03:30:54;;;;;;;33.13;6.60;;;8.00;97.20;;;;;;5073298;28;20026;-50
2023/12/11 03:33:21;;;;;;;35.45;6.97;;;8.00;97.20;;;;;;5073275;28;20353;-48
2023/12/11 03:35:55;;;;;;;45.13;8.43;;;8.00;97.10;;;;;;5073830;28;20024;-53
2023/12/11 03:38:22;;;;;;;34.08;6.82;;;8.00;97.10;;;;;;5073715;28;20036;-51
2023/12/11 03:40:48;;;;;;;35.97;9.38;;;8.00;97.10;;;;;;5073173;28;20024;-48
2023/12/11 03:43:14;;;;;;;43.15;7.97;;;7.90;97.10;;;;;;5073137;28;20035;-55
2023/12/11 03:45:41;;;;;;;39.15;8.10;;;7.90;97.00;;;;;;5055296;28;20036;-53
2023/12/11 03:48:08;;;;;;;47.13;8.73;;;7.90;97.00;;;;;;5073105;28;20403;-49
2023/12/11 03:50:35;;;;;;;35.70;8.98;;;7.90;97.00;;;;;;5055335;28;20330;-53
2023/12/11 03:53:02;;;;;;;41.42;7.28;;;7.90;97.10;;;;;;5055432;28;20118;-50
2023/12/11 03:55:30;;;;;;;32.83;6.47;;;7.90;97.00;;;;;;5072837;28;20059;-54
2023/12/11 03:57:56;;;;;;;32.55;6.38;;;7.90;97.10;;;;;;5073183;28;20353;-50
2023/12/11 04:00:23;;;;;;;43.72;8.13;;;7.90;97.00;;;;;;5072778;28;20442;-54
2023/12/11 04:02:50;;;;;;;32.40;7.05;;;7.90;97.00;;;;;;5055781;28;20032;-53
2023/12/11 04:05:15;;;;;;;45.85;7.13;;;7.90;97.00;;;;;;5072807;28;20048;-62
2023/12/11 04:07:42;;;;;;;45.33;7.95;;;7.90;97.00;;;;;;5072805;28;20025;-62
2023/12/11 04:10:10;;;;;;;44.67;8.88;;;7.90;97.00;;;;;;5072941;28;20045;-60
2023/12/11 04:12:38;;;;;;;32.25;6.50;;;7.90;97.00;;;;;;5073375;28;20021;-59
2023/12/11 04:15:06;;;;;;;31.40;5.43;;;7.90;97.00;;;;;;5072664;28;20024;-56
2023/12/11 04:17:32;;;;;;;28.23;6.00;;;7.90;97.00;;;;;;5054700;28;20097;-61
2023/12/11 04:19:59;;;;;;;30.73;6.18;;;7.90;97.00;;;;;;5071709;28;20021;-62
2023/12/11 04:22:28;;;;;;;32.42;5.90;;;7.90;97.00;;;;;;5072399;28;20392;-64
2023/12/11 04:24:58;;;;;;;36.42;6.80;;;7.90;97.00;;;;;;5085616;28;20039;-64
2023/12/11 04:27:25;;;;;;;31.23;6.03;;;7.90;97.00;;;;;;5072639;28;20028;-63
2023/12/11 04:29:52;;;;;;;25.65;5.53;;;7.90;97.00;;;;;;5072583;28;20104;-62
2023/12/11 04:32:28;;;;;;;23.15;5.78;;;7.90;97.10;;;;;;5073184;28;20082;-60
2023/12/11 04:34:54;;;;;;;30.40;5.72;;;7.90;97.00;;;;;;5072336;28;20048;-61
2023/12/11 04:37:21;;;;;;;30.98;5.45;;;7.90;97.00;;;;;;5073097;28;20039;-60
2023/12/11 04:39:48;;;;;;;26.17;6.43;;;7.90;97.10;;;;;;5072606;28;20086;-61
2023/12/11 04:42:16;;;;;;;25.50;6.15;;;7.90;97.10;;;;;;5072340;28;20067;-60
2023/12/11 04:44:45;;;;;;;36.00;6.28;;;7.90;97.10;;;;;;5072340;28;20051;-61
2023/12/11 04:47:13;;;;;;;23.05;4.80;;;7.90;97.10;;;;;;5073211;28;20025;-61
2023/12/11 04:49:42;;;;;;;21.02;4.80;;;7.90;97.10;;;;;;5072379;28;20052;-55
2023/12/11 04:52:07;;;;;;;24.48;4.60;;;7.90;97.10;;;;;;5074793;28;20024;-59
2023/12/11 04:54:34;;;;;;;22.92;5.45;;;7.90;97.10;;;;;;5074822;28;20089;-60
2023/12/11 04:57:01;;;;;;;21.75;7.30;;;7.90;97.20;;;;;;5092611;28;20103;-60
2023/12/11 04:59:27;;;;;;;22.98;6.70;;;7.90;97.10;;;;;;5089969;28;20024;-59
2023/12/11 05:01:53;;;;;;;27.80;6.70;;;7.80;97.20;;;;;;5072509;28;20025;-60
2023/12/11 05:04:22;;;;;;;21.98;6.15;;;7.90;97.20;;;;;;5072713;28;20037;-62
2023/12/11 05:06:53;;;;;;;21.85;5.30;;;7.90;97.20;;;;;;5072225;28;20458;-57
2023/12/11 05:09:27;;;;;;;22.40;5.45;;;7.90;97.20;;;;;;5054563;28;20461;-54
2023/12/11 05:11:55;;;;;;;26.48;4.75;;;7.90;97.20;;;;;;5072317;28;20442;-60
2023/12/11 05:14:22;;;;;;;28.92;5.78;;;7.90;97.20;;;;;;5072703;28;20056;-61
2023/12/11 05:16:50;;;;;;;23.75;4.78;;;7.90;97.30;;;;;;5072599;28;20060;-60
2023/12/11 05:19:17;;;;;;;25.60;5.28;;;7.90;97.20;;;;;;5072149;28;20077;-61
2023/12/11 05:21:45;;;;;;;29.42;5.43;;;7.90;97.20;;;;;;5054847;28;20067;-61
2023/12/11 05:24:13;;;;;;;26.30;5.13;;;7.90;97.30;;;;;;5084312;28;20422;-61
2023/12/11 05:26:41;;;;;;;22.83;4.82;;;7.90;97.30;;;;;;5077344;28;20078;-60
2023/12/11 05:29:10;;;;;;;31.25;6.65;;;7.90;97.30;;;;;;5072152;28;20027;-59
2023/12/11 05:31:41;;;;;;;25.75;5.43;;;7.90;97.40;;;;;;5074770;28;20032;-59
2023/12/11 05:34:08;;;;;;;29.63;5.53;;;7.90;97.30;;;;;;5075564;28;20438;-61
2023/12/11 05:36:36;;;;;;;28.05;6.28;;;7.90;97.40;;;;;;5076085;28;20089;-59
2023/12/11 05:39:03;;;;;;;33.40;6.57;;;7.90;97.40;;;;;;5075466;28;20044;-59
2023/12/11 05:41:30;;;;;;;30.77;6.55;;;8.00;97.40;;;;;;5075485;28;20484;-57
2023/12/11 05:43:59;;;;;;;29.75;6.65;;;8.00;97.40;;;;;;5075789;28;20119;-58
2023/12/11 05:46:30;;;;;;;31.63;8.13;;;8.00;97.30;;;;;;5057510;28;20520;-61
2023/12/11 05:48:55;;;;;;;34.83;8.77;;;8.00;97.40;;;;;;5058688;28;20051;-61
2023/12/11 05:51:22;;;;;;;33.58;8.57;;;8.00;97.40;;;;;;5075345;28;20017;-61
2023/12/11 05:53:50;;;;;;;32.65;7.93;;;8.00;97.40;;;;;;5057473;28;20462;-62
2023/12/11 05:56:17;;;;;;;34.60;8.20;;;8.00;97.50;;;;;;5075636;28;20044;-61
2023/12/11 05:58:43;;;;;;;43.08;9.30;;;8.00;97.40;;;;;;5057099;28;20089;-63
2023/12/11 06:01:12;;;;;;;32.00;8.38;;;8.00;97.40;;;;;;5057452;28;20029;-62
2023/12/11 06:03:38;;;;;;;50.93;11.00;;;8.00;97.50;;;;;;5057522;28;20369;-63
2023/12/11 06:06:05;;;;;;;37.97;7.78;;;8.10;97.50;;;;;;5075282;28;20038;-63
2023/12/11 06:08:32;;;;;;;47.17;9.30;;;8.00;97.50;;;;;;5056864;28;20078;-64
2023/12/11 06:11:00;;;;;;;36.95;9.10;;;8.10;97.50;;;;;;5075225;28;20021;-63
2023/12/11 06:13:28;;;;;;;41.95;9.38;;;8.10;97.60;;;;;;5074857;28;20025;-63
2023/12/11 06:15:53;;;;;;;31.52;9.35;;;8.10;97.60;;;;;;5074776;28;20039;-63
2023/12/11 06:18:19;;;;;;;45.80;10.25;;;8.20;97.60;;;;;;5075221;28;20033;-62
2023/12/11 06:20:46;;;;;;;45.50;13.35;;;8.10;97.60;;;;;;5057241;28;20037;-62
2023/12/11 06:23:14;;;;;;;40.83;9.68;;;8.20;97.60;;;;;;5078731;28;20030;-64
2023/12/11 06:25:45;;;;;;;43.38;10.40;;;8.10;97.60;;;;;;5086131;28;20036;-64
2023/12/11 06:28:12;;;;;;;40.42;9.52;;;8.10;97.60;;;;;;5056899;28;20119;-63
2023/12/11 06:30:40;;;;;;;37.85;8.13;;;8.20;97.60;;;;;;5074567;28;20355;-62
2023/12/11 06:33:06;;;;;;;48.65;9.77;;;8.20;97.60;;;;;;5075080;28;20008;-62
2023/12/11 06:35:34;;;;;;;38.83;8.80;;;8.20;97.60;;;;;;5074526;28;20083;-61
2023/12/11 06:38:02;;;;;;;51.38;9.13;;;8.20;97.60;;;;;;5074337;28;20024;-61
2023/12/11 06:40:29;;;;;;;40.53;8.75;;;8.20;97.60;;;;;;5074113;28;20362;-60
2023/12/11 06:42:55;;;;;;;46.70;8.38;;;8.20;97.60;;;;;;5074476;28;20338;-60
2023/12/11 06:45:21;;;;;;;44.95;9.48;;;8.20;97.60;;;;;;5074215;28;20024;-60
2023/12/11 06:47:47;;;;;;;36.83;8.70;;;8.20;97.60;;;;;;5056769;28;20434;-59
2023/12/11 06:50:13;;;;;;;42.20;8.30;;;8.20;97.70;;;;;;5074705;28;20039;-60
2023/12/11 06:52:39;;;;;;;41.80;7.95;;;8.20;97.70;;;;;;5073826;28;20021;-63
2023/12/11 06:55:08;;;;;;;31.80;8.55;;;8.20;97.70;;;;;;5074115;28;20085;-59
2023/12/11 06:57:35;;;;;;;33.60;8.68;;;8.20;97.70;;;;;;5074121;28;20025;-62
2023/12/11 07:00:12;;;;;;;52.92;8.77;;;8.20;97.70;;;;;;5074267;28;20359;-63
2023/12/11 07:02:38;;;;;;;45.78;7.82;;;8.20;97.80;;;;;;5074047;28;20024;-63
2023/12/11 07:05:06;;;;;;;49.22;9.65;;;8.20;97.70;;;;;;5074053;28;20059;-63
2023/12/11 07:07:32;;;;;;;46.60;9.10;;;8.30;97.80;;;;;;5073841;28;20025;-63
2023/12/11 07:10:04;;;;;;;38.45;9.48;;;8.30;97.80;;;;;;5092341;28;20025;-63
2023/12/11 07:12:33;;;;;;;42.55;8.10;;;8.30;97.80;;;;;;5087015;28;20442;-63
2023/12/11 07:15:03;;;;;;;41.03;9.18;;;8.30;97.70;;;;;;5073557;28;20043;-63
2023/12/11 07:17:30;;;;;;;44.55;8.48;;;8.30;97.70;;;;;;5055642;28;20051;-63
2023/12/11 07:19:56;;;;;;;39.38;8.38;;;8.30;97.80;;;;;;5072967;28;20477;-63
2023/12/11 07:22:24;;;;;;;42.78;9.15;;;8.30;97.80;;;;;;5073257;28;20028;-62
2023/12/11 07:24:51;;;;;;;38.63;8.20;;;8.30;97.80;;;;;;5084451;28;20093;-61
2023/12/11 07:27:19;;;;;;;34.33;7.88;;;8.30;97.80;;;;;;5073429;28;20086;-61
2023/12/11 07:29:50;;;;;;;49.45;8.93;;;8.40;97.80;;;;;;5056561;28;20521;-61
2023/12/11 07:32:21;;;;;;;42.83;9.32;;;8.40;97.80;;;;;;5073499;28;20033;-60
2023/12/11 07:34:49;;;;;;;29.45;7.93;;;8.40;97.80;;;;;;5055918;28;20478;-61
2023/12/11 07:37:16;;;;;;;57.65;9.50;;;8.40;97.80;;;;;;5073366;28;20051;-61
2023/12/11 07:39:43;;;;;;;37.72;8.35;;;8.40;97.80;;;;;;5073016;28;20031;-64
2023/12/11 07:42:11;;;;;;;33.05;7.10;;;8.40;97.80;;;;;;5073133;28;20166;-63
2023/12/11 07:44:39;;;;;;;44.22;8.68;;;8.40;97.90;;;;;;5072802;28;20039;-63
2023/12/11 07:47:07;;;;;;;34.50;8.55;;;8.40;97.90;;;;;;5055292;28;20021;-63
2023/12/11 07:49:35;;;;;;;44.83;8.40;;;8.40;97.80;;;;;;5073083;28;20028;-63
2023/12/11 07:52:03;;;;;;;44.13;10.32;;;8.40;97.80;;;;;;5073049;28;20513;-62
2023/12/11 07:54:30;;;;;;;48.30;10.00;;;8.40;97.80;;;;;;5072396;28;20445;-62
2023/12/11 07:56:58;;;;;;;55.90;9.82;;;8.40;97.80;;;;;;5073125;28;20449;-61
2023/12/11 07:59:25;;;;;;;43.45;8.18;;;8.40;97.80;;;;;;5072923;28;20436;-63
2023/12/11 08:01:54;;;;;;;28.75;7.28;;;8.40;97.80;;;;;;5072819;28;20444;-63
2023/12/11 08:04:21;;;;;;;41.13;7.07;;;8.40;97.80;;;;;;5072789;28;20059;-62
2023/12/11 08:06:50;;;;;;;42.25;6.80;;;8.40;97.90;;;;;;5072931;28;20031;-61
2023/12/11 08:09:16;;;;;;;39.15;8.02;;;8.40;97.90;;;;;;5073295;28;20042;-63
2023/12/11 08:11:44;;;;;;;37.72;7.53;;;8.40;97.80;;;;;;5072893;28;20564;-63
2023/12/11 08:14:10;;;;;;;27.83;6.78;;;8.50;97.80;;;;;;5055050;28;20120;-63
2023/12/11 08:16:40;;;;;;;40.63;8.88;;;8.50;97.80;;;;;;5071118;28;20029;-63
2023/12/11 08:19:07;;;;;;;;;;;8.50;97.80;;;;;;5073577;28;20039;-63
2023/12/11 08:21:34;;;;;;;38.92;7.10;;;8.50;97.80;;;;;;5072544;28;20248;-63
2023/12/11 08:24:00;;;;;;;40.60;9.10;;;8.50;97.80;;;;;;5083311;28;20039;-61
2023/12/11 08:26:28;;;;;;;31.33;6.80;;;8.50;97.80;;;;;;5081234;28;20040;-62
2023/12/11 08:28:55;;;;;;;36.47;6.68;;;8.50;97.80;;;;;;5072848;28;20059;-62
2023/12/11 08:31:22;;;;;;;41.20;8.48;;;8.50;97.80;;;;;;5072549;28;20434;-63
2023/12/11 08:33:48;;;;;;;33.33;7.70;;;8.60;97.80;;;;;;5054949;28;20021;-63
2023/12/11 08:36:13;;;;;;;40.00;7.75;;;8.60;97.80;;;;;;5054753;28;20036;-63
2023/12/11 08:38:43;;;;;;;39.03;10.13;;;8.60;97.80;;;;;;5072533;28;20038;-63
2023/12/11 08:41:11;;;;;;;39.72;8.05;;;8.60;97.80;;;;;;5072508;28;20025;-62
2023/12/11 08:43:39;;;;;;;35.40;7.35;;;8.60;97.80;;;;;;5072537;28;20029;-62
2023/12/11 08:46:08;;;;;;;33.13;5.55;;;8.60;97.80;;;;;;5053129;28;20053;-62
2023/12/11 08:48:34;;;;;;;34.70;5.93;;;8.60;97.70;;;;;;5072509;28;20032;-61
2023/12/11 08:51:04;;;;;;;25.48;6.50;;;8.60;97.80;;;;;;5073029;28;20032;-61
2023/12/11 08:53:31;;;;;;;;;;;8.60;97.80;;;;;;5055407;28;20024;-60
2023/12/11 08:55:59;;;;;;;44.92;6.68;;;8.60;97.80;;;;;;5072953;28;19920;-60
2023/12/11 08:58:31;;;;;;;36.28;7.32;;;8.60;97.70;;;;;;5072505;28;20033;-59
2023/12/11 09:00:58;;;;;;;37.25;8.68;;;8.60;97.70;;;;;;5071961;28;20090;-59
2023/12/11 09:03:28;;;;;;;35.88;6.93;;;8.60;97.70;;;;;;5072214;28;20048;-59
2023/12/11 09:05:57;;;;;;;;;;;8.60;97.60;;;;;;5095692;28;20039;-58
2023/12/11 09:08:23;;;;;;;29.52;7.25;;;8.70;97.70;;;;;;5096314;28;19908;-59
2023/12/11 09:10:53;;;;;;;39.33;8.93;;;8.70;97.60;;;;;;5096140;28;20043;-57
2023/12/11 09:13:20;;;;;;;;;;;8.60;97.60;;;;;;5090771;28;20024;-58
2023/12/11 09:15:47;;;;;;;32.45;6.47;;;8.70;97.60;;;;;;5075918;28;19995;-56
2023/12/11 09:18:15;;;;;;;32.28;5.97;;;8.70;97.60;;;;;;5040073;28;20029;-56
2023/12/11 09:20:44;;;;;;;36.50;6.95;;;8.80;97.60;;;;;;5075013;28;20048;-55
2023/12/11 09:23:11;;;;;;;33.50;7.33;;;8.80;97.70;;;;;;5080141;28;20106;-56
2023/12/11 09:25:41;;;;;;;38.85;7.65;;;8.80;97.60;;;;;;5095962;28;20368;-54
2023/12/11 09:28:09;;;;;;;26.80;5.03;;;8.90;97.60;;;;;;5078301;28;20043;-55
2023/12/11 09:30:39;;;;;;;30.13;5.50;;;8.90;97.60;;;;;;5092430;28;20095;-52
2023/12/11 09:33:06;;;;;;;25.38;7.25;;;8.80;97.50;;;;;;5075613;28;20175;-51
2023/12/11 09:35:37;;;;;;;28.02;4.85;;;8.80;97.50;;;;;;5057970;28;20025;-54
2023/12/11 09:38:05;;;;;;;31.23;7.05;;;8.80;97.50;;;;;;5075638;28;20078;-52
2023/12/11 09:40:37;;;;;;;21.10;4.35;;;8.80;97.50;;;;;;5075295;28;20032;-53
2023/12/11 09:43:09;;;;;;;25.10;5.63;;;8.80;97.50;;;;;;5075529;28;20024;-56
2023/12/11 09:45:37;;;;;;;19.35;4.55;;;8.80;97.40;;;;;;5074933;28;20506;-49
2023/12/11 09:48:04;;;;;;;21.88;5.28;;;8.90;97.50;;;;;;5074841;28;20032;-49
2023/12/11 09:50:32;;;;;;;16.75;4.10;;;8.90;97.40;;;;;;5075301;28;20070;-51
2023/12/11 09:53:02;;;;;;;19.95;5.68;;;9.00;97.50;;;;;;5057716;28;20037;-48
2023/12/11 09:55:31;;;;;;;23.02;5.47;;;9.00;97.50;;;;;;5058707;28;20448;-51
2023/12/11 09:58:00;;;;;;;24.50;3.75;;;9.00;97.40;;;;;;5075196;28;20056;-48
2023/12/11 10:00:27;;;;;;;18.85;4.07;;;9.10;97.40;;;;;;5058410;28;20063;-48
2023/12/11 10:02:54;;;;;;;23.35;6.35;;;9.20;97.30;;;;;;5075374;28;20024;-52
2023/12/11 10:05:24;;;;;;;11.48;3.28;;;9.20;97.30;;;;;;5040213;28;20067;-49
2023/12/11 10:07:51;;;;;;;21.38;5.07;;;9.20;97.30;;;;;;5048414;28;20514;-47
2023/12/11 10:10:25;;;;;;;21.73;4.95;;;9.30;97.20;;;;;;5075115;28;20100;-47
2023/12/11 10:12:55;;;;;;;17.02;3.63;;;9.40;97.30;;;;;;5075342;28;20101;-47
2023/12/11 10:15:31;;;;;;;14.88;4.00;;;9.40;97.30;;;;;;5075245;28;20089;-47
2023/12/11 10:18:15;;;;;;;22.02;5.47;;;9.40;97.10;;;;;;5057507;28;20032;-51
2023/12/11 10:20:57;;;;;;;17.88;3.85;;;9.40;97.00;;;;;;5057325;28;20461;-57
2023/12/11 10:23:23;;;;;;;18.23;4.30;;;9.30;97.00;;;;;;5080290;28;20032;-61
2023/12/11 10:26:06;;;;;;;15.57;3.45;;;9.30;97.00;;;;;;5077340;28;20110;-63
2023/12/11 10:28:34;;;;;;;13.00;4.28;;;9.20;96.90;;;;;;5075115;28;20032;-63
2023/12/11 10:31:05;;;;;;;11.43;3.72;;;9.20;97.00;;;;;;5074734;28;20372;-63
2023/12/11 10:33:33;;;;;;;15.18;4.00;;;9.20;96.90;;;;;;5074654;28;20035;-62
2023/12/11 10:36:12;;;;;;;10.90;3.53;;;9.20;96.90;;;;;;5057386;28;20021;-62
2023/12/11 10:38:39;;;;;;;15.85;4.03;;;9.20;96.90;;;;;;5056692;28;20029;-62
2023/12/11 10:41:07;;;;;;;17.38;5.68;;;9.20;96.80;;;;;;5074107;28;20036;-63
2023/12/11 10:43:44;;;;;;;12.35;3.60;;;9.10;96.70;;;;;;5074350;28;20028;-64
2023/12/11 10:46:11;;;;;;;12.10;3.50;;;9.10;96.80;;;;;;5074178;28;20090;-63
2023/12/11 10:48:37;;;;;;;16.85;3.33;;;9.00;96.80;;;;;;5074114;28;20020;-63
2023/12/11 10:51:05;;;;;;;16.52;4.60;;;9.00;96.80;;;;;;5094094;28;20077;-62
2023/12/11 10:53:33;;;;;;;17.25;4.63;;;9.00;96.90;;;;;;5076580;28;20020;-62
2023/12/11 10:56:02;;;;;;;15.73;4.70;;;9.10;96.90;;;;;;5076596;28;20028;-61
2023/12/11 10:58:29;;;;;;;13.30;4.68;;;9.20;96.90;;;;;;5080247;28;20607;-60
2023/12/11 11:01:00;;;;;;;10.20;4.10;;;9.30;96.90;;;;;;5073956;28;20032;-60
2023/12/11 11:03:33;;;;;;;13.88;4.70;;;9.30;96.80;;;;;;5057106;28;20060;-60
2023/12/11 11:06:03;;;;;;;17.35;5.00;;;9.30;96.80;;;;;;5073811;28;20052;-60
2023/12/11 11:08:55;;;;;;;11.85;4.35;;;9.30;96.70;;;;;;5056652;28;20024;-62
2023/12/11 11:11:32;;;;;;;15.65;4.35;;;9.30;96.70;;;;;;5073859;28;20028;-61
2023/12/11 11:14:36;;;;;;;10.25;3.95;;;9.30;96.70;;;;;;5056124;28;20028;-63
2023/12/11 11:17:02;;;;;;;13.95;5.28;;;9.30;96.70;;;;;;5074102;28;20028;-63
2023/12/11 11:19:29;;;;;;;10.93;4.35;;;9.20;96.70;;;;;;5073788;28;20078;-63
2023/12/11 11:22:14;;;;;;;13.55;4.43;;;9.20;96.70;;;;;;5055903;28;20020;-64
2023/12/11 11:24:40;;;;;;;12.75;4.63;;;9.20;96.70;;;;;;5079279;28;20424;-63
2023/12/11 11:27:43;;;;;;;14.50;4.65;;;9.20;96.70;;;;;;5055881;28;20020;-62
2023/12/11 11:30:10;;;;;;;19.27;5.25;;;9.20;96.80;;;;;;5066736;28;20043;-61
2023/12/11 11:32:55;;;;;;;18.25;4.38;;;9.20;96.70;;;;;;5073062;28;20024;-61
2023/12/11 11:35:45;;;;;;;16.35;4.20;;;9.20;96.70;;;;;;5055690;28;20039;-60
2023/12/11 11:38:13;;;;;;;13.65;4.25;;;9.30;96.80;;;;;;5073826;28;20040;-60
2023/12/11 11:40:43;;;;;;;14.00;4.10;;;9.20;96.70;;;;;;5039194;28;20182;-60
2023/12/11 11:43:10;;;;;;;12.95;3.63;;;9.20;96.70;;;;;;5073982;28;20086;-59
2023/12/11 11:45:39;;;;;;;12.40;4.15;;;9.20;96.80;;;;;;5055663;28;20060;-59
2023/12/11 11:48:07;;;;;;;14.40;4.32;;;9.20;96.80;;;;;;5055861;28;20021;-58
2023/12/11 11:50:37;;;;;;;12.55;3.85;;;9.20;96.70;;;;;;5073325;28;20074;-55
2023/12/11 11:53:24;;;;;;;11.10;3.78;;;9.20;96.80;;;;;;5072976;28;20060;-59
2023/12/11 11:55:50;;;;;;;19.90;3.83;;;9.20;96.70;;;;;;5073247;28;20032;-60
2023/12/11 11:58:16;;;;;;;20.58;4.07;;;9.20;96.70;;;;;;5056480;28;20130;-60
2023/12/11 12:00:48;;;;;;;11.82;3.10;;;9.20;96.70;;;;;;5055316;28;20345;-60
2023/12/11 12:03:17;;;;;;;14.10;3.35;;;9.10;96.70;;;;;;5062264;28;20033;-59
2023/12/11 12:05:55;;;;;;;14.77;3.95;;;9.10;96.70;;;;;;5061122;28;20486;-59
2023/12/11 12:08:24;;;;;;;13.25;2.60;;;9.00;96.70;;;;;;5056315;28;20036;-59
2023/12/11 12:10:56;;;;;;;16.25;3.33;;;9.00;96.70;;;;;;5073186;28;20028;-58
2023/12/11 12:13:23;;;;;;;15.10;4.05;;;8.90;96.70;;;;;;5056054;28;20040;-61
2023/12/11 12:15:52;;;;;;;25.77;6.50;;;8.90;96.80;;;;;;5055160;28;20063;-62
2023/12/11 12:18:21;;;;;;;15.18;4.45;;;8.90;96.80;;;;;;5073373;28;20024;-62
2023/12/11 12:21:02;;;;;;;20.95;4.18;;;8.90;96.80;;;;;;5055192;28;20047;-61
2023/12/11 12:23:29;;;;;;;19.25;4.60;;;8.90;96.90;;;;;;5065715;28;20035;-61
2023/12/11 12:26:06;;;;;;;22.17;4.25;;;8.90;96.90;;;;;;5094031;28;20039;-60
2023/12/11 12:28:35;;;;;;;21.88;4.25;;;8.90;96.90;;;;;;5065542;28;20028;-60
2023/12/11 12:31:02;;;;;;;22.30;4.32;;;8.90;96.90;;;;;;5072653;28;20033;-59
2023/12/11 12:33:29;;;;;;;25.30;5.85;;;8.80;97.00;;;;;;5054693;28;20166;-59
2023/12/11 12:35:56;;;;;;;25.45;5.15;;;8.90;97.00;;;;;;5044040;28;20073;-57
2023/12/11 12:38:22;;;;;;;25.92;6.28;;;8.90;97.00;;;;;;5075172;28;20040;-58
2023/12/11 12:40:55;;;;;;;19.73;5.65;;;8.90;97.00;;;;;;5092942;28;20039;-56
2023/12/11 12:43:25;;;;;;;21.88;4.82;;;8.80;97.00;;;;;;5073517;28;20048;-58
2023/12/11 12:45:59;;;;;;;22.58;4.45;;;8.90;97.00;;;;;;5058957;28;20319;-55
2023/12/11 12:48:29;;;;;;;24.15;4.65;;;8.80;97.10;;;;;;5076236;28;20033;-57
2023/12/11 12:51:10;;;;;;;21.13;4.38;;;8.80;97.10;;;;;;5076823;28;20032;-55
2023/12/11 12:53:50;;;;;;;25.85;3.95;;;8.80;97.10;;;;;;5076221;28;20032;-54
2023/12/11 12:56:23;;;;;;;28.00;4.88;;;8.80;97.10;;;;;;5076484;28;20024;-56